Time;durP1;ratioP1;P1;durP2;ratioP2;P2;SDS_P1;SDS_P2;PMS_P1;PMS_P2;Temp;Humidity;BMP_temperature;BMP_pressure;BME280_temperature;BME280_humidity;BME280_pressure;Samples;Min_cycle;Max_cycle;Signal;HPM_P1;HPM_P2
2021/06/09 00:01:00;;;;;;;13.80;11.60;;;;;;;20.39;56.41;102088.06;5051678;28;20049;-49
2021/06/09 00:03:29;;;;;;;15.00;11.63;;;;;;;20.35;56.36;102089.81;5050953;28;20039;-49
2021/06/09 00:05:57;;;;;;;15.13;11.60;;;;;;;20.32;56.90;102092.38;5051592;28;20041;-50
2021/06/09 00:08:24;;;;;;;15.82;12.10;;;;;;;20.25;57.06;102086.41;5051294;28;20049;-52
2021/06/09 00:10:56;;;;;;;15.23;11.82;;;;;;;20.19;57.18;102088.44;5051538;28;20559;-50
2021/06/09 00:13:26;;;;;;;16.67;11.60;;;;;;;20.17;57.03;102085.16;5051176;28;20045;-49
2021/06/09 00:15:55;;;;;;;14.73;12.73;;;;;;;20.14;57.00;102089.34;5051258;28;20049;-50
2021/06/09 00:18:23;;;;;;;15.00;12.45;;;;;;;20.13;57.50;102086.88;5051172;28;20049;-51
2021/06/09 00:20:51;;;;;;;18.25;12.82;;;;;;;20.08;57.43;102081.41;5051066;28;20044;-49
2021/06/09 00:23:20;;;;;;;15.35;11.90;;;;;;;20.08;57.51;102086.97;5066502;28;20049;-52
2021/06/09 00:25:52;;;;;;;16.15;12.70;;;;;;;20.09;57.50;102074.78;5054036;28;20395;-49
2021/06/09 00:28:20;;;;;;;17.27;12.57;;;;;;;20.10;57.32;102080.00;5033657;28;20053;-51
2021/06/09 00:30:48;;;;;;;17.25;12.48;;;;;;;20.11;57.49;102078.06;5039996;28;20553;-48
2021/06/09 00:33:26;;;;;;;16.77;12.57;;;;;;;20.08;57.39;102082.22;5054621;28;20061;-48
2021/06/09 00:35:57;;;;;;;15.38;12.00;;;;;;;20.04;57.55;102075.69;5055144;28;20041;-47
2021/06/09 00:38:28;;;;;;;17.83;12.93;;;;;;;19.95;57.83;102075.53;5054839;28;20041;-49
2021/06/09 00:41:00;;;;;;;15.07;12.38;;;;;;;19.87;58.27;102084.53;5055050;28;20057;-48
2021/06/09 00:43:32;;;;;;;15.23;12.85;;;;;;;19.82;58.53;102086.53;5054582;28;20041;-49
2021/06/09 00:46:06;;;;;;;15.55;13.15;;;;;;;19.80;58.55;102078.56;5054762;28;20068;-53
2021/06/09 00:48:35;;;;;;;16.88;13.32;;;;;;;19.76;58.61;102078.31;5054437;28;20098;-49
2021/06/09 00:51:18;;;;;;;14.50;12.27;;;;;;;19.75;58.76;102081.41;5054258;28;20530;-50
2021/06/09 00:53:51;;;;;;;16.52;13.30;;;;;;;19.76;58.88;102085.78;5054299;28;20037;-48
2021/06/09 00:56:20;;;;;;;16.92;13.52;;;;;;;19.75;58.82;102087.75;5052807;28;20078;-48
2021/06/09 00:58:49;;;;;;;17.80;13.18;;;;;;;19.69;59.09;102082.59;5054250;28;20399;-47
2021/06/09 01:01:21;;;;;;;16.98;13.45;;;;;;;19.67;59.11;102085.59;5054033;28;20079;-50
2021/06/09 01:03:50;;;;;;;18.27;14.13;;;;;;;19.66;59.30;102086.75;5054106;28;20061;-48
2021/06/09 01:06:18;;;;;;;18.00;13.68;;;;;;;19.67;59.28;102087.56;5054324;28;20041;-49
2021/06/09 01:08:47;;;;;;;16.35;13.45;;;;;;;19.67;59.25;102087.56;5054215;28;20049;-50
2021/06/09 01:11:17;;;;;;;18.50;14.43;;;;;;;19.68;59.36;102084.53;5053930;28;20061;-50
2021/06/09 01:13:45;;;;;;;17.05;14.05;;;;;;;19.66;59.28;102086.75;5054216;28;20076;-48
2021/06/09 01:16:13;;;;;;;16.92;14.23;;;;;;;19.65;59.29;102085.09;5053734;28;20049;-50
2021/06/09 01:18:41;;;;;;;16.95;14.23;;;;;;;19.66;59.45;102072.91;5054152;28;20049;-50
2021/06/09 01:21:09;;;;;;;17.75;14.60;;;;;;;19.66;59.53;102083.16;5053782;28;20065;-50
2021/06/09 01:23:38;;;;;;;17.25;14.63;;;;;;;19.65;59.62;102075.97;5053924;28;20060;-49
2021/06/09 01:26:08;;;;;;;16.45;13.75;;;;;;;19.63;59.62;102075.47;5054080;28;20071;-49
2021/06/09 01:28:40;;;;;;;18.52;13.82;;;;;;;19.61;59.63;102069.41;5053758;28;20053;-50
2021/06/09 01:31:08;;;;;;;17.42;14.55;;;;;;;19.63;59.76;102072.69;5052169;28;20045;-50
2021/06/09 01:33:36;;;;;;;19.27;15.10;;;;;;;19.63;59.65;102067.16;5052625;28;20048;-50
2021/06/09 01:36:04;;;;;;;16.95;14.45;;;;;;;19.63;59.55;102070.75;5053953;28;20041;-48
2021/06/09 01:38:31;;;;;;;20.13;15.43;;;;;;;19.62;59.58;102068.28;5053659;28;20073;-49
2021/06/09 01:41:01;;;;;;;18.13;15.15;;;;;;;19.61;59.79;102069.41;5053566;28;20079;-50
2021/06/09 01:43:28;;;;;;;18.65;15.75;;;;;;;19.62;59.64;102069.09;5053327;28;20452;-48
2021/06/09 01:45:57;;;;;;;18.35;14.65;;;;;;;19.61;59.84;102063.88;5053059;28;20098;-49
2021/06/09 01:48:24;;;;;;;19.90;15.30;;;;;;;19.60;59.69;102079.63;5053206;28;20381;-49
2021/06/09 01:50:52;;;;;;;18.80;15.25;;;;;;;19.57;59.99;102069.97;5039690;28;20083;-49
2021/06/09 01:53:20;;;;;;;18.92;15.73;;;;;;;19.55;60.09;102063.97;5053675;28;20072;-48
2021/06/09 01:55:48;;;;;;;23.83;15.95;;;;;;;19.53;59.95;102068.97;5053258;28;20048;-48
2021/06/09 01:58:17;;;;;;;17.90;15.15;;;;;;;19.51;60.31;102073.16;5053450;28;20071;-49
2021/06/09 02:00:47;;;;;;;19.02;15.65;;;;;;;19.46;60.47;102071.28;5052939;28;20052;-49
2021/06/09 02:03:15;;;;;;;20.02;16.02;;;;;;;19.45;60.53;102072.38;5052920;28;20460;-49
2021/06/09 02:05:44;;;;;;;18.60;16.25;;;;;;;19.43;60.55;102068.25;5053123;28;20052;-49
2021/06/09 02:08:13;;;;;;;19.80;15.88;;;;;;;19.36;60.86;102080.53;5053213;28;20041;-50
2021/06/09 02:10:41;;;;;;;20.13;16.02;;;;;;;19.29;61.00;102079.22;5052820;28;20430;-49
2021/06/09 02:13:15;;;;;;;19.65;16.02;;;;;;;19.25;60.95;102080.94;5052912;28;20040;-49
2021/06/09 02:15:44;;;;;;;18.10;14.93;;;;;;;19.26;61.23;102083.41;5052484;28;20454;-49
2021/06/09 02:18:14;;;;;;;19.55;15.90;;;;;;;19.28;61.16;102078.41;5052930;28;20084;-49
2021/06/09 02:20:42;;;;;;;19.40;15.50;;;;;;;19.30;61.00;102076.16;5053090;28;20052;-49
2021/06/09 02:23:12;;;;;;;17.90;15.40;;;;;;;19.29;61.20;102080.06;5053027;28;20586;-50
2021/06/09 02:25:42;;;;;;;19.48;15.85;;;;;;;19.24;61.11;102071.84;5053122;28;20086;-49
2021/06/09 02:28:10;;;;;;;17.38;15.48;;;;;;;19.16;61.41;102076.06;5052376;28;20037;-49
2021/06/09 02:30:42;;;;;;;17.70;15.48;;;;;;;19.13;61.80;102075.84;5052533;28;20033;-48
2021/06/09 02:33:11;;;;;;;19.90;15.02;;;;;;;19.12;61.74;102075.03;5052373;28;20048;-50
2021/06/09 02:35:45;;;;;;;18.02;14.85;;;;;;;19.14;61.71;102078.28;5051705;28;20484;-49
2021/06/09 02:38:14;;;;;;;18.85;15.15;;;;;;;19.16;61.51;102080.78;5051303;28;20083;-49
2021/06/09 02:40:44;;;;;;;17.63;15.27;;;;;;;19.18;61.48;102072.19;5052686;28;20037;-50
2021/06/09 02:43:12;;;;;;;17.58;15.60;;;;;;;19.14;61.45;102071.94;5051941;28;20478;-49
2021/06/09 02:45:40;;;;;;;21.58;15.00;;;;;;;19.10;61.51;102068.97;5052167;28;20041;-49
2021/06/09 02:48:10;;;;;;;19.17;15.85;;;;;;;19.11;61.68;102069.78;5051914;28;20068;-49
2021/06/09 02:50:39;;;;;;;19.42;15.00;;;;;;;19.06;61.73;102064.34;5052443;28;20076;-50
2021/06/09 02:53:11;;;;;;;18.73;15.13;;;;;;;19.04;61.97;102069.31;5052291;28;20091;-49
2021/06/09 02:55:52;;;;;;;19.52;16.13;;;;;;;19.02;61.76;102069.59;5052432;28;20090;-50
2021/06/09 02:58:53;;;;;;;18.38;14.98;;;;;;;19.00;61.79;102065.50;5051922;28;20044;-50
2021/06/09 03:01:52;;;;;;;17.08;14.55;;;;;;;19.00;61.83;102066.34;5052174;28;20045;-51
2021/06/09 03:04:39;;;;;;;17.85;14.07;;;;;;;19.00;61.69;102071.88;5051798;28;20048;-49
2021/06/09 03:07:23;;;;;;;18.60;12.98;;;;;;;18.96;61.62;102065.28;5050922;28;20111;-53
2021/06/09 03:10:06;;;;;;;17.15;13.15;;;;;;;18.90;61.76;102063.69;5051156;28;20075;-51
2021/06/09 03:12:51;;;;;;;16.75;13.93;;;;;;;18.90;62.08;102070.03;5051587;28;20059;-53
2021/06/09 03:15:26;;;;;;;15.98;14.05;;;;;;;18.91;61.88;102068.09;5052571;28;20095;-49
2021/06/09 03:18:14;;;;;;;18.65;14.48;;;;;;;18.89;62.10;102071.16;5051142;28;20045;-50
2021/06/09 03:20:51;;;;;;;17.20;14.57;;;;;;;18.84;62.28;102067.63;5051811;28;20095;-51
2021/06/09 03:23:47;;;;;;;17.25;13.85;;;;;;;18.80;62.29;102067.38;5052041;28;20049;-49
2021/06/09 03:26:47;;;;;;;20.05;14.82;;;;;;;18.75;62.32;102059.13;5050704;28;20053;-51
2021/06/09 03:29:45;;;;;;;18.00;14.52;;;;;;;18.71;62.62;102067.19;5009713;28;20082;-50
2021/06/09 03:32:58;;;;;;;18.02;14.70;;;;;;;18.66;62.87;102067.22;5010420;28;20507;-50
2021/06/09 03:35:50;;;;;;;19.08;15.15;;;;;;;18.56;63.15;102064.56;4951934;28;20110;-48
2021/06/09 03:38:28;;;;;;;17.55;14.80;;;;;;;18.48;63.57;102066.03;4919892;29;20110;-52
2021/06/09 03:40:59;;;;;;;18.50;14.82;;;;;;;18.45;63.85;102063.88;4935473;29;20095;-47
2021/06/09 03:43:29;;;;;;;20.45;15.88;;;;;;;18.46;63.93;102056.41;4935299;29;20047;-49
2021/06/09 03:45:58;;;;;;;17.98;14.68;;;;;;;18.51;63.78;102056.34;4935653;29;20091;-46
2021/06/09 03:48:29;;;;;;;17.90;14.98;;;;;;;18.57;63.60;102052.44;4936945;28;20059;-49
2021/06/09 03:51:00;;;;;;;21.45;16.48;;;;;;;18.61;63.50;102053.47;4938108;29;20052;-50
2021/06/09 03:53:28;;;;;;;22.45;17.02;;;;;;;18.61;63.64;102063.69;4954818;28;20063;-52
2021/06/09 03:56:00;;;;;;;22.77;17.15;;;;;;;18.61;63.62;102059.00;4955337;28;20140;-52
2021/06/09 03:58:28;;;;;;;18.88;15.43;;;;;;;18.65;63.59;102054.53;4936045;28;20050;-49
2021/06/09 04:00:57;;;;;;;21.02;17.10;;;;;;;18.71;63.51;102049.78;4938688;29;20043;-49
2021/06/09 04:03:25;;;;;;;20.45;17.35;;;;;;;18.74;63.48;102055.56;4939282;28;20458;-48
2021/06/09 04:05:54;;;;;;;20.27;17.05;;;;;;;18.78;63.30;102053.03;4974925;28;20095;-49
2021/06/09 04:08:22;;;;;;;21.83;16.25;;;;;;;18.81;63.24;102058.00;5054717;28;20068;-48
2021/06/09 04:10:49;;;;;;;19.42;17.33;;;;;;;18.82;63.38;102058.81;5053674;28;20076;-50
2021/06/09 04:13:17;;;;;;;22.25;17.27;;;;;;;18.82;63.47;102056.06;5054115;28;20041;-49
2021/06/09 04:15:46;;;;;;;23.42;18.17;;;;;;;18.78;63.60;102057.75;5054169;28;20048;-47
2021/06/09 04:18:14;;;;;;;20.73;17.35;;;;;;;18.76;63.84;102057.19;5055578;28;20075;-48
2021/06/09 04:20:43;;;;;;;24.38;18.77;;;;;;;18.79;63.85;102059.41;5054143;28;20041;-48
2021/06/09 04:23:11;;;;;;;19.95;17.77;;;;;;;18.80;63.81;102053.56;5055067;28;20083;-48
2021/06/09 04:25:39;;;;;;;23.75;18.73;;;;;;;18.82;63.74;102053.28;5053207;28;20078;-50
2021/06/09 04:28:07;;;;;;;20.90;17.30;;;;;;;18.81;63.86;102051.63;5053687;28;20049;-48
2021/06/09 04:30:36;;;;;;;22.85;18.17;;;;;;;18.82;63.85;102054.09;5053871;28;20091;-49
2021/06/09 04:33:10;;;;;;;21.38;17.13;;;;;;;18.86;63.80;102054.38;5053336;28;20442;-51
2021/06/09 04:35:42;;;;;;;19.88;16.60;;;;;;;18.89;63.77;102054.56;5054963;28;20099;-48
2021/06/09 04:38:18;;;;;;;24.02;18.63;;;;;;;18.90;63.62;102056.22;5054713;28;20102;-50
2021/06/09 04:40:46;;;;;;;;;;;;;;;18.93;62.96;102054.81;5054818;28;20053;-49
2021/06/09 04:43:14;;;;;;;22.73;18.25;;;;;;;18.92;63.61;102047.63;5054622;28;19925;-48
2021/06/09 04:45:41;;;;;;;21.25;18.83;;;;;;;18.91;63.75;102046.81;5055110;28;20041;-50
2021/06/09 04:48:11;;;;;;;18.73;16.13;;;;;;;18.95;63.64;102047.03;5053483;28;20045;-54
2021/06/09 04:50:39;;;;;;;22.73;18.48;;;;;;;18.98;63.50;102051.16;5054929;28;20566;-50
2021/06/09 04:53:12;;;;;;;23.25;18.10;;;;;;;19.02;63.46;102049.47;5054859;28;20095;-51
2021/06/09 04:55:45;;;;;;;18.98;16.10;;;;;;;19.06;63.17;102048.56;5053999;28;20450;-46
2021/06/09 04:58:14;;;;;;;23.15;18.95;;;;;;;19.11;63.07;102048.50;5054332;28;20553;-50
2021/06/09 05:00:44;;;;;;;19.23;15.52;;;;;;;19.15;62.74;102046.81;5045469;28;20048;-49
2021/06/09 05:03:11;;;;;;;23.67;18.48;;;;;;;19.19;62.54;102052.53;5054297;28;20095;-50
2021/06/09 05:05:40;;;;;;;24.95;21.17;;;;;;;19.24;62.33;102048.91;5053062;28;20072;-50
2021/06/09 05:08:08;;;;;;;22.30;19.23;;;;;;;19.29;62.03;102043.28;5053268;28;20044;-51
2021/06/09 05:10:38;;;;;;;24.23;20.15;;;;;;;19.34;61.85;102049.59;5053426;28;20114;-53
2021/06/09 05:13:29;;;;;;;22.40;19.25;;;;;;;19.37;61.34;102048.16;5039259;28;20138;-49
2021/06/09 05:16:04;;;;;;;25.50;22.67;;;;;;;19.39;61.73;102045.13;5054322;28;20048;-49
2021/06/09 05:18:39;;;;;;;27.48;24.42;;;;;;;19.39;61.81;102051.47;5053982;28;20118;-53
2021/06/09 05:21:08;;;;;;;22.93;19.57;;;;;;;19.43;61.85;102052.50;5048472;28;20084;-53
2021/06/09 05:23:46;;;;;;;27.95;23.55;;;;;;;19.46;61.52;102051.91;5053556;28;20580;-51
2021/06/09 05:26:14;;;;;;;24.48;19.40;;;;;;;19.46;61.75;102051.06;5052562;28;20044;-53
2021/06/09 05:28:52;;;;;;;24.05;21.52;;;;;;;19.46;61.77;102051.91;5052537;28;20090;-52
2021/06/09 05:31:20;;;;;;;25.38;21.63;;;;;;;19.47;61.97;102061.84;5052441;28;20071;-52
2021/06/09 05:33:48;;;;;;;22.20;18.98;;;;;;;19.52;61.41;102056.25;5052666;28;20042;-50
2021/06/09 05:36:18;;;;;;;21.13;18.85;;;;;;;19.54;61.44;102062.28;5052248;28;20087;-50
2021/06/09 05:38:46;;;;;;;24.67;20.70;;;;;;;19.57;61.57;102053.41;5052074;28;20091;-49
2021/06/09 05:41:16;;;;;;;25.00;22.30;;;;;;;19.61;61.43;102058.34;5052214;28;20045;-50
2021/06/09 05:43:44;;;;;;;34.03;22.15;;;;;;;19.62;61.63;102059.97;4352858;28;10000191;-51
2021/06/09 05:46:11;;;;;;;30.60;25.52;;;;;;;19.61;61.87;102052.81;5051398;28;20054;-49
2021/06/09 05:48:41;;;;;;;25.40;21.35;;;;;;;19.63;61.52;102056.09;5050124;28;20526;-49
2021/06/09 05:51:10;;;;;;;26.80;23.92;;;;;;;19.64;61.73;102058.56;5050998;28;20072;-51
2021/06/09 05:53:37;;;;;;;25.15;22.13;;;;;;;19.70;61.21;102056.56;5050725;28;20496;-53
2021/06/09 05:56:06;;;;;;;28.92;24.45;;;;;;;19.70;61.38;102056.56;5050939;28;20049;-48
2021/06/09 05:58:33;;;;;;;26.38;23.08;;;;;;;19.72;61.47;102057.09;5051208;28;20068;-50
2021/06/09 06:01:05;;;;;;;33.47;27.40;;;;;;;19.71;61.64;102059.03;5051418;28;20060;-53
2021/06/09 06:03:33;;;;;;;43.88;28.08;;;;;;;19.70;61.89;102062.94;5050552;28;20049;-54
2021/06/09 06:06:06;;;;;;;24.67;20.23;;;;;;;19.72;61.83;102052.41;5049118;28;20048;-51
2021/06/09 06:08:38;;;;;;;30.38;22.40;;;;;;;19.76;62.07;102052.59;5050710;28;20053;-51
2021/06/09 06:11:08;;;;;;;31.52;27.42;;;;;;;19.77;62.14;102057.00;5050511;28;20064;-51
2021/06/09 06:13:36;;;;;;;33.83;29.55;;;;;;;19.78;62.20;102061.44;5049666;28;20081;-51
2021/06/09 06:16:04;;;;;;;29.42;26.17;;;;;;;19.79;62.03;102057.53;5049293;28;20044;-50
2021/06/09 06:18:36;;;;;;;31.00;24.70;;;;;;;19.85;61.56;102056.34;5050202;28;20052;-49
2021/06/09 06:21:06;;;;;;;26.10;22.75;;;;;;;19.86;61.76;102057.97;5049276;28;20053;-51
2021/06/09 06:23:35;;;;;;;30.58;22.25;;;;;;;19.87;61.22;102054.09;5047227;28;20056;-50
2021/06/09 06:26:13;;;;;;;31.15;26.33;;;;;;;19.89;61.32;102056.53;5050222;28;20170;-50
2021/06/09 06:28:41;;;;;;;25.17;20.83;;;;;;;19.98;60.89;102058.31;5049462;28;20041;-49
2021/06/09 06:31:19;;;;;;;25.80;22.75;;;;;;;20.03;60.29;102059.38;5050038;28;20550;-52
2021/06/09 06:33:48;;;;;;;31.83;22.60;;;;;;;20.09;60.38;102060.94;5048881;28;20111;-48
2021/06/09 06:36:17;;;;;;;25.95;22.40;;;;;;;20.11;60.70;102059.53;5048060;28;20399;-51
2021/06/09 06:38:46;;;;;;;27.75;23.17;;;;;;;20.17;60.54;102060.25;5032622;28;20080;-49
2021/06/09 06:41:13;;;;;;;34.22;30.33;;;;;;;20.16;61.85;102064.97;5049134;28;20053;-50
2021/06/09 06:43:42;;;;;;;33.90;29.17;;;;;;;20.11;61.82;102067.00;5044712;28;20040;-49
2021/06/09 06:46:18;;;;;;;36.13;29.08;;;;;;;20.10;61.97;102065.34;5049878;28;20488;-51
2021/06/09 06:48:46;;;;;;;;;;;;;;;20.09;62.50;102059.00;5050401;28;20103;-47
2021/06/09 06:51:16;;;;;;;50.88;33.45;;;;;;;20.10;62.92;102065.34;5049581;28;20395;-50
2021/06/09 06:53:45;;;;;;;39.33;26.73;;;;;;;20.16;62.37;102066.91;5049139;28;20045;-49
2021/06/09 06:56:14;;;;;;;36.05;22.83;;;;;;;20.21;62.11;102067.63;5052205;28;20045;-51
2021/06/09 06:58:48;;;;;;;37.38;32.67;;;;;;;20.28;61.82;102067.25;5049607;28;20044;-48
2021/06/09 07:01:28;;;;;;;35.50;29.15;;;;;;;20.27;61.58;102071.13;5052078;28;20099;-53
2021/06/09 07:03:56;;;;;;;43.90;26.98;;;;;;;20.26;62.09;102066.72;5050071;28;20037;-54
2021/06/09 07:06:24;;;;;;;35.13;30.00;;;;;;;20.26;62.22;102068.69;5050941;28;20053;-48
2021/06/09 07:09:02;;;;;;;31.05;27.75;;;;;;;20.27;62.19;102071.13;5052092;28;20049;-49
2021/06/09 07:11:31;;;;;;;35.65;29.65;;;;;;;20.29;62.06;102077.19;5052239;28;20069;-48
2021/06/09 07:14:00;;;;;;;33.40;29.58;;;;;;;20.31;61.72;102077.72;5050710;28;20403;-48
2021/06/09 07:16:32;;;;;;;32.92;29.25;;;;;;;20.32;61.50;102076.56;5050804;28;20463;-48
2021/06/09 07:19:05;;;;;;;30.00;26.55;;;;;;;20.33;60.69;102075.47;5051635;28;20060;-47
2021/06/09 07:21:33;;;;;;;29.08;24.75;;;;;;;20.35;60.67;102075.16;5050499;28;20048;-49
2021/06/09 07:24:02;;;;;;;26.25;23.33;;;;;;;20.35;60.35;102078.75;5050640;28;20115;-48
2021/06/09 07:26:34;;;;;;;32.88;25.90;;;;;;;20.37;60.58;102079.28;5050271;28;20060;-48
2021/06/09 07:29:02;;;;;;;29.85;25.83;;;;;;;20.37;60.44;102079.28;5050860;28;20052;-50
2021/06/09 07:31:34;;;;;;;27.63;24.50;;;;;;;20.37;60.84;102082.03;5051879;28;20075;-47
2021/06/09 07:34:03;;;;;;;30.38;26.85;;;;;;;20.39;60.81;102084.50;5051382;28;20041;-50
2021/06/09 07:36:40;;;;;;;31.00;25.77;;;;;;;20.39;60.83;102076.19;5050525;28;20045;-47
2021/06/09 07:39:35;;;;;;;30.58;25.38;;;;;;;20.42;60.71;102076.41;5051548;28;20099;-48
2021/06/09 07:42:06;;;;;;;29.73;26.02;;;;;;;20.45;61.08;102076.94;5049785;28;20045;-48
2021/06/09 07:44:37;;;;;;;26.52;23.70;;;;;;;20.47;60.14;102072.75;5050542;28;20098;-48
2021/06/09 07:47:08;;;;;;;29.88;24.35;;;;;;;20.50;60.68;102074.06;5050164;28;20385;-49
2021/06/09 07:49:37;;;;;;;26.58;23.70;;;;;;;20.56;60.71;102081.16;5049992;28;20117;-50
2021/06/09 07:52:05;;;;;;;34.20;25.25;;;;;;;20.60;60.01;102079.44;5051399;28;20041;-49
2021/06/09 07:54:35;;;;;;;26.48;23.60;;;;;;;20.62;59.05;102082.72;5051586;28;20407;-47
2021/06/09 07:57:04;;;;;;;30.15;25.98;;;;;;;20.65;59.08;102087.66;5050419;28;20057;-48
2021/06/09 07:59:33;;;;;;;27.98;23.48;;;;;;;20.67;58.66;102090.13;5050421;28;20094;-48
2021/06/09 08:02:02;;;;;;;25.70;21.83;;;;;;;20.69;58.81;102088.69;5050194;28;20091;-49
2021/06/09 08:04:30;;;;;;;26.45;23.02;;;;;;;20.72;58.34;102088.06;5050090;28;20033;-49
2021/06/09 08:06:58;;;;;;;29.48;22.55;;;;;;;20.73;57.23;102088.88;5050699;28;20041;-49
2021/06/09 08:09:26;;;;;;;28.33;22.65;;;;;;;20.75;57.61;102087.44;5051473;28;20115;-50
2021/06/09 08:11:54;;;;;;;26.85;22.77;;;;;;;20.79;57.60;102093.22;5050524;28;20085;-51
2021/06/09 08:14:21;;;;;;;24.83;20.10;;;;;;;20.81;57.54;102089.00;5050632;28;20094;-52
2021/06/09 08:16:49;;;;;;;27.05;22.52;;;;;;;20.87;57.92;102083.38;5051403;28;20087;-53
2021/06/09 08:19:17;;;;;;;26.27;20.38;;;;;;;20.91;57.53;102082.44;5051062;28;20453;-49
2021/06/09 08:21:45;;;;;;;25.35;21.58;;;;;;;20.94;57.57;102079.06;5051437;28;20269;-49
2021/06/09 08:24:12;;;;;;;25.88;21.88;;;;;;;20.98;57.55;102079.28;5051746;28;20099;-49
2021/06/09 08:26:41;;;;;;;26.17;21.65;;;;;;;21.02;57.18;102081.13;5051289;28;20083;-50
2021/06/09 08:29:09;;;;;;;23.48;19.15;;;;;;;21.06;57.37;102084.91;5051704;28;20041;-47
2021/06/09 08:31:37;;;;;;;26.38;19.88;;;;;;;21.11;56.46;102078.44;5050713;28;20488;-49
2021/06/09 08:34:09;;;;;;;22.75;18.02;;;;;;;21.18;55.55;102080.78;5051633;28;20045;-48
2021/06/09 08:36:39;;;;;;;21.48;18.33;;;;;;;21.19;54.64;102080.50;5051553;28;20072;-49
2021/06/09 08:39:08;;;;;;;20.00;16.35;;;;;;;21.20;54.28;102082.13;5051558;28;20519;-49
2021/06/09 08:41:40;;;;;;;21.23;14.85;;;;;;;21.24;53.52;102091.47;5051624;28;20397;-50
2021/06/09 08:44:08;;;;;;;21.42;15.75;;;;;;;21.28;52.86;102084.16;5051609;28;20064;-47
2021/06/09 08:46:36;;;;;;;19.23;15.60;;;;;;;21.31;53.40;102087.44;5052915;28;20102;-50
2021/06/09 08:49:04;;;;;;;18.75;15.80;;;;;;;21.34;53.48;102092.38;5055032;28;20045;-48
2021/06/09 08:51:34;;;;;;;21.23;15.57;;;;;;;21.38;53.13;102087.84;5054399;28;20553;-49
2021/06/09 08:54:05;;;;;;;16.80;14.15;;;;;;;21.41;52.64;102087.28;5054982;28;20438;-54
2021/06/09 08:56:33;;;;;;;19.38;14.52;;;;;;;21.46;52.97;102087.16;5055102;28;20048;-53
2021/06/09 08:59:00;;;;;;;18.50;14.95;;;;;;;21.51;52.82;102087.03;5053889;28;20053;-48
2021/06/09 09:01:31;;;;;;;22.10;17.60;;;;;;;21.55;53.06;102081.69;5053030;28;20329;-48
2021/06/09 09:04:02;;;;;;;20.70;15.65;;;;;;;21.62;52.06;102088.47;5054401;28;20048;-50
2021/06/09 09:06:30;;;;;;;20.75;16.60;;;;;;;21.69;52.55;102088.84;5054885;28;20098;-49
2021/06/09 09:08:58;;;;;;;22.63;18.58;;;;;;;21.72;52.49;102089.34;5054687;28;20033;-50
2021/06/09 09:11:26;;;;;;;25.35;17.48;;;;;;;21.74;53.07;102089.84;5054664;28;20508;-50
2021/06/09 09:13:54;;;;;;;24.20;18.20;;;;;;;21.77;52.11;102098.38;5055286;28;20075;-49
2021/06/09 09:16:21;;;;;;;21.90;18.05;;;;;;;21.79;52.05;102092.50;5054332;28;20045;-50
2021/06/09 09:18:58;;;;;;;21.65;18.70;;;;;;;21.80;52.19;102094.16;5053777;28;20041;-50
2021/06/09 09:21:52;;;;;;;21.63;17.42;;;;;;;21.82;52.57;102091.91;5054513;28;20080;-53
2021/06/09 09:24:37;;;;;;;23.98;18.48;;;;;;;21.84;51.32;102090.44;5052966;28;20045;-53
2021/06/09 09:27:05;;;;;;;24.38;17.10;;;;;;;21.86;51.31;102099.28;5054445;28;20069;-49
2021/06/09 09:29:33;;;;;;;21.63;16.58;;;;;;;21.87;50.76;102100.91;5052282;28;20099;-51
2021/06/09 09:32:05;;;;;;;19.33;17.23;;;;;;;21.89;50.78;102093.09;5053000;28;20099;-49
2021/06/09 09:34:42;;;;;;;21.35;15.82;;;;;;;21.91;50.60;102090.00;5053540;28;20052;-51
2021/06/09 09:37:19;;;;;;;20.23;13.95;;;;;;;21.94;50.08;102092.16;5054004;28;20041;-47
2021/06/09 09:39:49;;;;;;;18.15;14.40;;;;;;;21.97;49.79;102097.06;5053760;28;20458;-49
2021/06/09 09:42:29;;;;;;;17.40;13.00;;;;;;;21.99;50.16;102097.56;5054159;28;20045;-50
2021/06/09 09:45:23;;;;;;;22.20;14.85;;;;;;;22.02;50.45;102098.91;5052815;28;20045;-50
2021/06/09 09:48:15;;;;;;;19.38;14.32;;;;;;;22.03;50.47;102104.16;5011874;28;20074;-49
2021/06/09 09:50:49;;;;;;;20.08;13.73;;;;;;;22.07;49.36;102104.31;5011673;28;20080;-49
2021/06/09 09:53:26;;;;;;;19.23;13.88;;;;;;;22.09;49.55;102096.50;5011549;28;20582;-49
2021/06/09 09:56:00;;;;;;;18.17;13.00;;;;;;;22.11;49.47;102089.50;5011812;28;20447;-50
2021/06/09 09:58:28;;;;;;;16.88;13.05;;;;;;;22.17;49.06;102101.28;5010079;28;20058;-50
2021/06/09 10:01:23;;;;;;;17.30;13.40;;;;;;;22.19;49.32;102095.44;5011656;28;20073;-50
2021/06/09 10:03:58;;;;;;;16.63;11.03;;;;;;;22.17;48.33;102104.06;5009556;28;20081;-51
2021/06/09 10:06:42;;;;;;;15.25;11.32;;;;;;;22.25;48.41;102099.75;4995233;28;20460;-50
2021/06/09 10:09:14;;;;;;;12.63;8.13;;;;;;;22.35;47.35;102091.16;5011312;28;20504;-51
2021/06/09 10:11:45;;;;;;;12.20;8.85;;;;;;;22.44;47.03;102086.50;4978839;28;20072;-52
2021/06/09 10:14:22;;;;;;;12.65;9.27;;;;;;;22.51;46.78;102095.19;5010643;28;20093;-51
2021/06/09 10:17:03;;;;;;;13.68;10.63;;;;;;;22.59;46.74;102090.00;5011169;28;20107;-47
2021/06/09 10:19:34;;;;;;;15.98;9.35;;;;;;;22.65;46.50;102088.72;5010812;28;20046;-50
2021/06/09 10:22:11;;;;;;;13.73;9.98;;;;;;;22.72;46.22;102091.84;5011237;28;20057;-47
2021/06/09 10:24:58;;;;;;;13.52;10.32;;;;;;;22.76;46.54;102092.84;5027750;28;20044;-49
2021/06/09 10:27:35;;;;;;;15.77;9.65;;;;;;;22.74;45.71;102086.78;5052876;28;20048;-52
2021/06/09 10:30:20;;;;;;;11.63;8.27;;;;;;;22.76;44.83;102088.09;5052615;28;20041;-48
2021/06/09 10:32:51;;;;;;;13.18;8.48;;;;;;;22.79;44.34;102089.44;5052987;28;20518;-50
2021/06/09 10:35:22;;;;;;;14.07;7.63;;;;;;;22.83;43.96;102090.44;5052739;28;20403;-47
2021/06/09 10:37:51;;;;;;;11.73;8.38;;;;;;;22.88;44.43;102078.34;5053094;28;20044;-49
2021/06/09 10:40:26;;;;;;;12.32;9.65;;;;;;;22.96;44.15;102085.91;5053233;28;20086;-50
2021/06/09 10:42:59;;;;;;;17.25;10.35;;;;;;;23.01;44.10;102073.84;5052820;28;20041;-47
2021/06/09 10:45:27;;;;;;;13.65;9.80;;;;;;;23.05;44.18;102078.44;5039059;28;20103;-50
2021/06/09 10:48:00;;;;;;;12.98;9.05;;;;;;;23.10;44.24;102075.50;5052591;28;20056;-48
2021/06/09 10:50:28;;;;;;;16.33;10.35;;;;;;;23.13;43.59;102074.03;5055610;28;20537;-47
2021/06/09 10:52:56;;;;;;;15.90;10.65;;;;;;;23.14;43.34;102070.13;5054903;28;20045;-51
2021/06/09 10:55:24;;;;;;;12.60;9.32;;;;;;;23.14;43.44;102064.56;5051653;28;20045;-49
2021/06/09 10:57:51;;;;;;;12.68;9.50;;;;;;;23.16;42.83;102070.59;5052357;28;20443;-50
2021/06/09 11:00:20;;;;;;;11.50;8.20;;;;;;;23.22;42.86;102072.09;5052432;28;20048;-51
2021/06/09 11:02:49;;;;;;;14.57;9.32;;;;;;;23.26;42.39;102069.47;5052344;28;20045;-51
2021/06/09 11:05:18;;;;;;;10.43;7.60;;;;;;;23.29;42.85;102072.44;5051369;28;20057;-52
2021/06/09 11:07:47;;;;;;;12.13;8.48;;;;;;;23.35;42.27;102067.53;5051047;28;20363;-51
2021/06/09 11:10:39;;;;;;;12.57;8.27;;;;;;;23.39;43.16;102071.31;5052309;28;20041;-45
2021/06/09 11:13:09;;;;;;;14.07;9.98;;;;;;;23.42;42.57;102070.66;5050506;28;20098;-48
2021/06/09 11:15:37;;;;;;;13.43;9.68;;;;;;;23.44;42.24;102067.56;5052149;28;20447;-46
2021/06/09 11:18:15;;;;;;;12.80;9.02;;;;;;;23.40;41.93;102067.38;5051957;28;20044;-49
2021/06/09 11:20:50;;;;;;;15.80;9.25;;;;;;;23.44;42.04;102071.16;5050986;28;20049;-50
2021/06/09 11:23:28;;;;;;;16.65;10.40;;;;;;;23.46;41.95;102071.66;5051306;28;20119;-50
2021/06/09 11:25:57;;;;;;;14.00;10.05;;;;;;;23.49;41.80;102059.06;5051994;28;20494;-50
2021/06/09 11:28:33;;;;;;;13.35;9.75;;;;;;;23.51;41.45;102063.13;5053014;28;20068;-48
2021/06/09 11:31:09;;;;;;;15.65;9.68;;;;;;;23.55;41.40;102057.75;5052826;28;20056;-48